Defne-s — TCTI5 — position and weather

sailwx.info

Track history (hours):
 
Tides and Currents Weather Stations Pressure Air Temp Water Temp Dewpoint Dewpoint Depression Visibility Wind Speed Wind Dir Waves Ship Positions

Defne-s

Last reported at 2017-Oct-20 08:41 UTC. Time now 2017-Oct-20 10:49 UTC.
Position N 57°51' E 008°21'.

Length 109 m; draft 4.6 m.

Type: Tanker. MMSI: 271002639.

Date/timePositionNaut miles runAvg speedWind from/ knotsBaromVisibWave heightAir tempDewpointWater temp
2017-Oct-20 08:41N 57°51' E 008°21'211.4
2017-Oct-20 08:30N 57°51' E 008°17'611.0
2017-Oct-20 08:00N 57°51' E 008°07'510.2
2017-Oct-20 07:30N 57°51' E 007°58'510.1
2017-Oct-20 07:00N 57°51' E 007°48'5 9.8
2017-Oct-20 06:30N 57°51' E 007°39'510.1
2017-Oct-20 06:00N 57°51' E 007°29'510.1
2017-Oct-20 05:30N 57°51' E 007°20'5 9.8
2017-Oct-20 05:00N 57°51' E 007°11'5 9.7
2017-Oct-20 04:30N 57°52' E 007°02'5 9.6
2017-Oct-20 04:00N 57°53' E 006°53'5 9.4
2017-Oct-20 03:30N 57°55' E 006°45'5 9.4
2017-Oct-20 03:00N 57°56' E 006°36'5 9.1
2017-Oct-20 02:30N 57°58' E 006°28'5 9.1
2017-Oct-20 02:00N 58°01' E 006°22'510.2
2017-Oct-20 01:30N 58°04' E 006°15'510.1
2017-Oct-20 01:00N 58°08' E 006°08'510.1
2017-Oct-20 00:30N 58°11' E 006°00'510.2
2017-Oct-20 00:00N 58°15' E 005°54'5 9.9
2017-Oct-19 23:30N 58°18' E 005°47'510.2
2017-Oct-19 23:00N 58°21' E 005°40'510.1
2017-Oct-19 22:30N 58°26' E 005°34'510.7
2017-Oct-19 22:00N 58°30' E 005°28'510.1
2017-Oct-19 21:30N 58°34' E 005°22'5 9.4
2017-Oct-19 21:00N 58°37' E 005°16'5 9.9
2017-Oct-19 20:30N 58°42' E 005°12'510.1
2017-Oct-19 20:01N 58°46' E 005°07'510.1
2017-Oct-19 19:30N 58°50' E 005°02'5 9.7
2017-Oct-19 19:00N 58°55' E 004°58'510.1
2017-Oct-19 18:29N 58°59' E 004°53'511.0
2017-Oct-19 18:00N 59°04' E 004°48'5211.1
2017-Oct-19 13:20N 59°55' E 004°34'411.7
2017-Oct-19 13:00N 59°59' E 004°35'611.7
2017-Oct-19 12:30N 60°05' E 004°34'612.4
2017-Oct-19 12:00N 60°11' E 004°33'612.2
2017-Oct-19 11:30N 60°17' E 004°32'612.5
2017-Oct-19 11:00N 60°23' E 004°30'612.5
2017-Oct-19 10:30N 60°29' E 004°27'612.6
2017-Oct-19 10:00N 60°36' E 004°24'612.7
2017-Oct-19 09:30N 60°42' E 004°21'16610.8
2017-Oct-18 18:05N 63°14' E 006°42'111.8
2017-Oct-18 17:59N 63°14' E 006°45'612.0
2017-Oct-18 17:30N 63°14' E 006°58'612.1
2017-Oct-18 16:59N 63°14' E 007°11'612.2
2017-Oct-18 16:31N 63°15' E 007°24'611.9
2017-Oct-18 16:01N 63°15' E 007°38'4 8.8
2017-Oct-18 15:30N 63°12' E 007°45'5 9.2
2017-Oct-18 15:00N 63°08' E 007°41'4 4.1
2017-Oct-18 13:58N 63°03' E 007°40'0 0.0
2017-Oct-18 13:28N 63°03' E 007°40'0 0.0
2017-Oct-18 12:58N 63°03' E 007°40'0 0.0
2017-Oct-18 12:28N 63°03' E 007°40'0 0.0
2017-Oct-18 11:58N 63°03' E 007°40'0 0.0
2017-Oct-18 11:28N 63°03' E 007°40'0 0.0
2017-Oct-18 10:58N 63°03' E 007°40'0 0.0
2017-Oct-18 10:28N 63°03' E 007°40'0 0.0
2017-Oct-18 09:58N 63°03' E 007°40'0 0.0
2017-Oct-18 09:28N 63°03' E 007°40'0 0.0
2017-Oct-18 08:58N 63°03' E 007°40'0 0.0
2017-Oct-18 08:28N 63°03' E 007°40'0 0.0
2017-Oct-18 07:58N 63°03' E 007°40'0 0.0
2017-Oct-18 07:28N 63°03' E 007°40'0 0.0
2017-Oct-18 06:58N 63°03' E 007°40'0 0.0
2017-Oct-18 06:28N 63°03' E 007°40'0 0.0
2017-Oct-18 05:58N 63°03' E 007°40'0 0.0
2017-Oct-18 05:28N 63°03' E 007°40'0 0.0
2017-Oct-18 04:58N 63°03' E 007°40'0 0.0
2017-Oct-18 04:28N 63°03' E 007°40'0 0.0
2017-Oct-18 03:58N 63°03' E 007°40'0 0.0
2017-Oct-18 03:28N 63°03' E 007°40'0 0.0
2017-Oct-18 02:58N 63°03' E 007°40'0 0.0
2017-Oct-18 02:28N 63°03' E 007°40'0 0.0
2017-Oct-18 01:58N 63°03' E 007°40'0 0.0
2017-Oct-18 01:28N 63°03' E 007°40'0 0.0
2017-Oct-18 00:58N 63°03' E 007°40'0 0.0
2017-Oct-18 00:28N 63°03' E 007°40'0 0.0
2017-Oct-17 23:58N 63°03' E 007°40'0 0.0
2017-Oct-17 23:28N 63°03' E 007°40'0 0.0
2017-Oct-17 22:58N 63°03' E 007°40'0 0.5
2017-Oct-17 22:30N 63°03' E 007°40'3 6.0
2017-Oct-17 22:00N 63°06' E 007°41'612.0
2017-Oct-17 21:30N 63°12' E 007°46'4 8.0
2017-Oct-17 21:00N 63°14' E 007°39'612.5
2017-Oct-17 20:30N 63°15' E 007°25'713.1
2017-Oct-17 20:00N 63°12' E 007°11'612.7
2017-Oct-17 19:30N 63°10' E 006°58'612.2
2017-Oct-17 19:00N 63°08' E 006°46'612.3
2017-Oct-17 18:30N 63°04' E 006°35'612.7
2017-Oct-17 18:00N 62°60' E 006°24'613.2
2017-Oct-17 17:30N 62°56' E 006°13'612.5
2017-Oct-17 17:00N 62°52' E 006°02'612.0
2017-Oct-17 16:30N 62°48' E 005°52'611.9
2017-Oct-17 16:00N 62°44' E 005°42'611.7
2017-Oct-17 15:29N 62°40' E 005°32'611.8
2017-Oct-17 15:00N 62°36' E 005°23'612.1
2017-Oct-17 14:30N 62°31' E 005°15'1111.4
2017-Oct-17 13:30N 62°22' E 005°01'612.1
2017-Oct-17 13:00N 62°17' E 004°54'611.2
2017-Oct-17 12:30N 62°12' E 004°48'510.7
2017-Oct-17 12:00N 62°08' E 004°42'510.2
2017-Oct-17 11:30N 62°03' E 004°37'510.2
2017-Oct-17 11:00N 61°58' E 004°32'611.3
2017-Oct-17 10:30N 61°53' E 004°30'611.6
2017-Oct-17 10:00N 61°47' E 004°27'611.3
2017-Oct-17 09:30N 61°42' E 004°24'3212.2
2017-Oct-17 06:50N 61°09' E 004°16'513.7
2017-Oct-17 06:30N 61°05' E 004°15'713.5
2017-Oct-17 06:00N 60°58' E 004°15'11511.9
2017-Oct-16 20:18N 59°04' E 004°53'413.5
2017-Oct-16 20:00N 59°04' E 005°01'612.9
2017-Oct-16 19:30N 59°04' E 005°13'713.3
2017-Oct-16 19:00N 59°07' E 005°25'4 8.8
2017-Oct-16 18:30N 59°05' E 005°33'611.9
2017-Oct-16 18:00N 59°02' E 005°42'4 7.4
2017-Oct-16 17:30N 58°59' E 005°46'1 1.1
2017-Oct-16 16:59N 58°58' E 005°45'0 0.0
2017-Oct-16 16:29N 58°58' E 005°45'0 0.0
2017-Oct-16 15:59N 58°58' E 005°45'0 0.0
2017-Oct-16 15:29N 58°58' E 005°45'0 0.0
2017-Oct-16 14:59N 58°58' E 005°45'0 0.0
2017-Oct-16 13:59N 58°58' E 005°45'0 0.0
2017-Oct-16 13:29N 58°58' E 005°45'0 0.0
2017-Oct-16 12:59N 58°58' E 005°45'0 0.0
2017-Oct-16 12:29N 58°58' E 005°45'0 0.0
2017-Oct-16 11:59N 58°58' E 005°45'0 0.0
2017-Oct-16 11:29N 58°58' E 005°45'0 0.2
2017-Oct-16 11:00N 58°58' E 005°46'3 7.0
2017-Oct-16 10:31N 59°02' E 005°47'611.8
2017-Oct-16 10:00N 59°02' E 005°36'5 9.4
2017-Oct-16 09:30N 58°58' E 005°33'612.2
2017-Oct-16 09:00N 58°52' E 005°31'5 9.8
2017-Oct-16 08:30N 58°49' E 005°23'510.4
2017-Oct-16 08:00N 58°47' E 005°15'510.7
2017-Oct-16 07:30N 58°41' E 005°13'611.6
2017-Oct-16 07:00N 58°36' E 005°15'611.5
2017-Oct-16 06:30N 58°30' E 005°17'612.0
2017-Oct-16 06:00N 58°24' E 005°20'611.8
2017-Oct-16 05:30N 58°20' E 005°28'611.6
2017-Oct-16 05:00N 58°16' E 005°36'611.2
2017-Oct-16 04:30N 58°13' E 005°44'611.1
2017-Oct-16 04:00N 58°09' E 005°52'510.9
2017-Oct-16 03:30N 58°05' E 005°60'611.1
2017-Oct-16 03:00N 58°02' E 006°08'510.8
2017-Oct-16 02:30N 57°58' E 006°15'610.7
2017-Oct-16 02:00N 57°55' E 006°23'510.4
2017-Oct-16 01:30N 57°51' E 006°31'510.3
2017-Oct-16 01:01N 57°48' E 006°38'510.6
2017-Oct-16 00:30N 57°48' E 006°48'510.5
2017-Oct-16 00:00N 57°48' E 006°58'510.1
2017-Oct-15 23:30N 57°47' E 007°07'510.3
2017-Oct-15 23:00N 57°47' E 007°17'510.4
2017-Oct-15 22:30N 57°47' E 007°27'510.5
2017-Oct-15 22:00N 57°47' E 007°37'510.5
2017-Oct-15 21:30N 57°47' E 007°47'510.5
2017-Oct-15 21:00N 57°47' E 007°56'510.4
2017-Oct-15 20:30N 57°48' E 008°06'510.5
2017-Oct-15 20:00N 57°48' E 008°16'7810.5
2017-Oct-15 12:33N 57°57' E 010°42'112.3
2017-Oct-15 12:30N 57°57' E 010°43'612.1
2017-Oct-15 12:00N 57°53' E 010°51'611.6
2017-Oct-15 11:28N 57°48' E 010°59'611.9
2017-Oct-15 10:59N 57°43' E 011°05'612.5
2017-Oct-15 10:30N 57°38' E 011°11'712.8
2017-Oct-15 09:59N 57°33' E 011°18'612.8
2017-Oct-15 09:30N 57°28' E 011°26'612.9
2017-Oct-15 09:00N 57°22' E 011°30'612.7
2017-Oct-15 08:30N 57°16' E 011°34'612.3
2017-Oct-15 08:00N 57°10' E 011°38'612.2
2017-Oct-15 07:30N 57°05' E 011°42'612.3
2017-Oct-15 07:00N 56°59' E 011°45'612.0
2017-Oct-15 06:30N 56°53' E 011°49'611.8
2017-Oct-15 06:00N 56°48' E 011°53'611.0
2017-Oct-15 05:30N 56°42' E 011°55'511.1
2017-Oct-15 05:00N 56°37' E 011°58'611.3
2017-Oct-15 04:28N 56°31' E 012°00'611.1
2017-Oct-15 03:59N 56°26' E 012°02'510.9
2017-Oct-15 03:30N 56°21' E 012°04'510.2
2017-Oct-15 03:00N 56°17' E 012°09'711.6
2017-Oct-15 02:22N 56°12' E 012°20'411.9
2017-Oct-15 02:00N 56°10' E 012°26'611.5
2017-Oct-15 01:30N 56°06' E 012°35'611.3
2017-Oct-15 01:00N 56°02' E 012°41'611.5
2017-Oct-15 00:30N 55°56' E 012°44'611.7
2017-Oct-15 00:00N 55°50' E 012°45'611.6
2017-Oct-14 23:30N 55°45' E 012°50'611.9
2017-Oct-14 23:00N 55°40' E 012°56'5 9.3
2017-Oct-14 22:30N 55°36' E 012°52'510.9
2017-Oct-14 22:00N 55°32' E 012°46'4 8.8
2017-Oct-14 21:30N 55°28' E 012°42'611.6
2017-Oct-14 21:00N 55°22' E 012°41'5 9.1
2017-Oct-14 20:25N 55°18' E 012°45'511.3
2017-Oct-14 20:00N 55°16' E 012°53'611.7
2017-Oct-14 19:30N 55°14' E 013°02'612.0
2017-Oct-14 19:00N 55°11' E 013°12'1812.3
2017-Oct-14 17:30N 55°04' E 013°42'611.8
2017-Oct-14 16:58N 55°02' E 013°52'1411.2
2017-Oct-14 15:41N 54°56' E 014°15'211.2
2017-Oct-14 15:30N 54°56' E 014°18'611.1
2017-Oct-14 14:57N 54°53' E 014°28'510.9
2017-Oct-14 14:30N 54°51' E 014°36'611.1
2017-Oct-14 14:00N 54°49' E 014°45'611.5
2017-Oct-14 13:30N 54°47' E 014°54'711.8
2017-Oct-14 12:56N 54°45' E 015°05'9911.1
2017-Oct-14 04:01N 54°59' E 017°56'011.7
2017-Oct-14 04:00N 54°59' E 017°56'611.1
2017-Oct-14 03:29N 55°01' E 018°06'610.9
2017-Oct-14 02:58N 55°02' E 018°16'511.0
2017-Oct-14 02:30N 55°01' E 018°24'611.2
2017-Oct-14 02:00N 55°01' E 018°34'611.2
2017-Oct-14 01:30N 54°59' E 018°43'611.5
2017-Oct-14 01:00N 54°56' E 018°52'611.4
2017-Oct-14 00:30N 54°54' E 019°01'611.4
2017-Oct-14 00:00N 54°52' E 019°10'611.3
2017-Oct-13 23:30N 54°50' E 019°19'611.3
2017-Oct-13 23:00N 54°47' E 019°28'17 0.5
2017-Oct-12 12:18N 54°38' E 019°54'3 8.5
2017-Oct-12 12:00N 54°40' E 019°50'611.1
2017-Oct-12 11:29N 54°42' E 019°41'510.9
2017-Oct-12 11:00N 54°47' E 019°38'510.5
2017-Oct-12 10:30N 54°52' E 019°37'510.6
2017-Oct-12 10:00N 54°58' E 019°37'5311.7
2017-Oct-12 05:26N 55°42' E 018°45'512.1
2017-Oct-12 04:59N 55°46' E 018°39'39 0.9
2017-Oct-10 11:09N 55°08' E 018°29'110.0
2017-Oct-10 11:00N 55°07' E 018°30'5 9.7
2017-Oct-10 10:30N 55°03' E 018°36'5 9.5
2017-Oct-10 10:00N 54°60' E 018°41'5 9.4
2017-Oct-10 09:30N 54°56' E 018°47'5 9.4
2017-Oct-10 09:00N 54°52' E 018°52'  
Track history (hours):
 
Tides and Currents Weather Stations Pressure Air Temp Water Temp Dewpoint Dewpoint Depression Visibility Wind Speed Wind Dir Waves Ship Positions

Defne-s

Last reported at 2017-Oct-20 08:41 UTC. Time now 2017-Oct-20 10:49 UTC.
Position N 57°51' E 008°21'.

Length 109 m; draft 4.6 m.

Type: Tanker. MMSI: 271002639.

Date/timePositionNaut miles runAvg speedWind from/ knotsBaromVisibWave heightAir tempDewpointWater temp
2017-Oct-20 08:41N 57°51' E 008°21'211.4
2017-Oct-20 08:30N 57°51' E 008°17'611.0
2017-Oct-20 08:00N 57°51' E 008°07'510.2
2017-Oct-20 07:30N 57°51' E 007°58'510.1
2017-Oct-20 07:00N 57°51' E 007°48'5 9.8
2017-Oct-20 06:30N 57°51' E 007°39'510.1
2017-Oct-20 06:00N 57°51' E 007°29'510.1
2017-Oct-20 05:30N 57°51' E 007°20'5 9.8
2017-Oct-20 05:00N 57°51' E 007°11'5 9.7
2017-Oct-20 04:30N 57°52' E 007°02'5 9.6
2017-Oct-20 04:00N 57°53' E 006°53'5 9.4
2017-Oct-20 03:30N 57°55' E 006°45'5 9.4
2017-Oct-20 03:00N 57°56' E 006°36'5 9.1
2017-Oct-20 02:30N 57°58' E 006°28'5 9.1
2017-Oct-20 02:00N 58°01' E 006°22'510.2
2017-Oct-20 01:30N 58°04' E 006°15'510.1
2017-Oct-20 01:00N 58°08' E 006°08'510.1
2017-Oct-20 00:30N 58°11' E 006°00'510.2
2017-Oct-20 00:00N 58°15' E 005°54'5 9.9
2017-Oct-19 23:30N 58°18' E 005°47'510.2
2017-Oct-19 23:00N 58°21' E 005°40'510.1
2017-Oct-19 22:30N 58°26' E 005°34'510.7
2017-Oct-19 22:00N 58°30' E 005°28'510.1
2017-Oct-19 21:30N 58°34' E 005°22'5 9.4
2017-Oct-19 21:00N 58°37' E 005°16'5 9.9
2017-Oct-19 20:30N 58°42' E 005°12'510.1
2017-Oct-19 20:01N 58°46' E 005°07'510.1
2017-Oct-19 19:30N 58°50' E 005°02'5 9.7
2017-Oct-19 19:00N 58°55' E 004°58'510.1
2017-Oct-19 18:29N 58°59' E 004°53'511.0
2017-Oct-19 18:00N 59°04' E 004°48'5211.1
2017-Oct-19 13:20N 59°55' E 004°34'411.7
2017-Oct-19 13:00N 59°59' E 004°35'611.7
2017-Oct-19 12:30N 60°05' E 004°34'612.4
2017-Oct-19 12:00N 60°11' E 004°33'612.2
2017-Oct-19 11:30N 60°17' E 004°32'612.5
2017-Oct-19 11:00N 60°23' E 004°30'612.5
2017-Oct-19 10:30N 60°29' E 004°27'612.6
2017-Oct-19 10:00N 60°36' E 004°24'612.7
2017-Oct-19 09:30N 60°42' E 004°21'16610.8
2017-Oct-18 18:05N 63°14' E 006°42'111.8
2017-Oct-18 17:59N 63°14' E 006°45'612.0
2017-Oct-18 17:30N 63°14' E 006°58'612.1
2017-Oct-18 16:59N 63°14' E 007°11'612.2
2017-Oct-18 16:31N 63°15' E 007°24'611.9
2017-Oct-18 16:01N 63°15' E 007°38'4 8.8
2017-Oct-18 15:30N 63°12' E 007°45'5 9.2
2017-Oct-18 15:00N 63°08' E 007°41'4 4.1
2017-Oct-18 13:58N 63°03' E 007°40'0 0.0
2017-Oct-18 13:28N 63°03' E 007°40'0 0.0
2017-Oct-18 12:58N 63°03' E 007°40'0 0.0
2017-Oct-18 12:28N 63°03' E 007°40'0 0.0
2017-Oct-18 11:58N 63°03' E 007°40'0 0.0
2017-Oct-18 11:28N 63°03' E 007°40'0 0.0
2017-Oct-18 10:58N 63°03' E 007°40'0 0.0
2017-Oct-18 10:28N 63°03' E 007°40'0 0.0
2017-Oct-18 09:58N 63°03' E 007°40'0 0.0
2017-Oct-18 09:28N 63°03' E 007°40'0 0.0
2017-Oct-18 08:58N 63°03' E 007°40'0 0.0
2017-Oct-18 08:28N 63°03' E 007°40'0 0.0
2017-Oct-18 07:58N 63°03' E 007°40'0 0.0
2017-Oct-18 07:28N 63°03' E 007°40'0 0.0
2017-Oct-18 06:58N 63°03' E 007°40'0 0.0
2017-Oct-18 06:28N 63°03' E 007°40'0 0.0
2017-Oct-18 05:58N 63°03' E 007°40'0 0.0
2017-Oct-18 05:28N 63°03' E 007°40'0 0.0
2017-Oct-18 04:58N 63°03' E 007°40'0 0.0
2017-Oct-18 04:28N 63°03' E 007°40'0 0.0
2017-Oct-18 03:58N 63°03' E 007°40'0 0.0
2017-Oct-18 03:28N 63°03' E 007°40'0 0.0
2017-Oct-18 02:58N 63°03' E 007°40'0 0.0
2017-Oct-18 02:28N 63°03' E 007°40'0 0.0
2017-Oct-18 01:58N 63°03' E 007°40'0 0.0
2017-Oct-18 01:28N 63°03' E 007°40'0 0.0
2017-Oct-18 00:58N 63°03' E 007°40'0 0.0
2017-Oct-18 00:28N 63°03' E 007°40'0 0.0
2017-Oct-17 23:58N 63°03' E 007°40'0 0.0
2017-Oct-17 23:28N 63°03' E 007°40'0 0.0
2017-Oct-17 22:58N 63°03' E 007°40'0 0.5
2017-Oct-17 22:30N 63°03' E 007°40'3 6.0
2017-Oct-17 22:00N 63°06' E 007°41'612.0
2017-Oct-17 21:30N 63°12' E 007°46'4 8.0
2017-Oct-17 21:00N 63°14' E 007°39'612.5
2017-Oct-17 20:30N 63°15' E 007°25'713.1
2017-Oct-17 20:00N 63°12' E 007°11'612.7
2017-Oct-17 19:30N 63°10' E 006°58'612.2
2017-Oct-17 19:00N 63°08' E 006°46'612.3
2017-Oct-17 18:30N 63°04' E 006°35'612.7
2017-Oct-17 18:00N 62°60' E 006°24'613.2
2017-Oct-17 17:30N 62°56' E 006°13'612.5
2017-Oct-17 17:00N 62°52' E 006°02'612.0
2017-Oct-17 16:30N 62°48' E 005°52'611.9
2017-Oct-17 16:00N 62°44' E 005°42'611.7
2017-Oct-17 15:29N 62°40' E 005°32'611.8
2017-Oct-17 15:00N 62°36' E 005°23'612.1
2017-Oct-17 14:30N 62°31' E 005°15'1111.4
2017-Oct-17 13:30N 62°22' E 005°01'612.1
2017-Oct-17 13:00N 62°17' E 004°54'611.2
2017-Oct-17 12:30N 62°12' E 004°48'510.7
2017-Oct-17 12:00N 62°08' E 004°42'510.2
2017-Oct-17 11:30N 62°03' E 004°37'510.2
2017-Oct-17 11:00N 61°58' E 004°32'611.3
2017-Oct-17 10:30N 61°53' E 004°30'611.6
2017-Oct-17 10:00N 61°47' E 004°27'611.3
2017-Oct-17 09:30N 61°42' E 004°24'3212.2
2017-Oct-17 06:50N 61°09' E 004°16'513.7
2017-Oct-17 06:30N 61°05' E 004°15'713.5
2017-Oct-17 06:00N 60°58' E 004°15'11511.9
2017-Oct-16 20:18N 59°04' E 004°53'413.5
2017-Oct-16 20:00N 59°04' E 005°01'612.9
2017-Oct-16 19:30N 59°04' E 005°13'713.3
2017-Oct-16 19:00N 59°07' E 005°25'4 8.8
2017-Oct-16 18:30N 59°05' E 005°33'611.9
2017-Oct-16 18:00N 59°02' E 005°42'4 7.4
2017-Oct-16 17:30N 58°59' E 005°46'1 1.1
2017-Oct-16 16:59N 58°58' E 005°45'0 0.0
2017-Oct-16 16:29N 58°58' E 005°45'0 0.0
2017-Oct-16 15:59N 58°58' E 005°45'0 0.0
2017-Oct-16 15:29N 58°58' E 005°45'0 0.0
2017-Oct-16 14:59N 58°58' E 005°45'0 0.0
2017-Oct-16 13:59N 58°58' E 005°45'0 0.0
2017-Oct-16 13:29N 58°58' E 005°45'0 0.0
2017-Oct-16 12:59N 58°58' E 005°45'0 0.0
2017-Oct-16 12:29N 58°58' E 005°45'0 0.0
2017-Oct-16 11:59N 58°58' E 005°45'0 0.0
2017-Oct-16 11:29N 58°58' E 005°45'0 0.2
2017-Oct-16 11:00N 58°58' E 005°46'3 7.0
2017-Oct-16 10:31N 59°02' E 005°47'611.8
2017-Oct-16 10:00N 59°02' E 005°36'5 9.4
2017-Oct-16 09:30N 58°58' E 005°33'612.2
2017-Oct-16 09:00N 58°52' E 005°31'5 9.8
2017-Oct-16 08:30N 58°49' E 005°23'510.4
2017-Oct-16 08:00N 58°47' E 005°15'510.7
2017-Oct-16 07:30N 58°41' E 005°13'611.6
2017-Oct-16 07:00N 58°36' E 005°15'611.5
2017-Oct-16 06:30N 58°30' E 005°17'612.0
2017-Oct-16 06:00N 58°24' E 005°20'611.8
2017-Oct-16 05:30N 58°20' E 005°28'611.6
2017-Oct-16 05:00N 58°16' E 005°36'611.2
2017-Oct-16 04:30N 58°13' E 005°44'611.1
2017-Oct-16 04:00N 58°09' E 005°52'510.9
2017-Oct-16 03:30N 58°05' E 005°60'611.1
2017-Oct-16 03:00N 58°02' E 006°08'510.8
2017-Oct-16 02:30N 57°58' E 006°15'610.7
2017-Oct-16 02:00N 57°55' E 006°23'510.4
2017-Oct-16 01:30N 57°51' E 006°31'510.3
2017-Oct-16 01:01N 57°48' E 006°38'510.6
2017-Oct-16 00:30N 57°48' E 006°48'510.5
2017-Oct-16 00:00N 57°48' E 006°58'510.1
2017-Oct-15 23:30N 57°47' E 007°07'510.3
2017-Oct-15 23:00N 57°47' E 007°17'510.4
2017-Oct-15 22:30N 57°47' E 007°27'510.5
2017-Oct-15 22:00N 57°47' E 007°37'510.5
2017-Oct-15 21:30N 57°47' E 007°47'510.5
2017-Oct-15 21:00N 57°47' E 007°56'510.4
2017-Oct-15 20:30N 57°48' E 008°06'510.5
2017-Oct-15 20:00N 57°48' E 008°16'7810.5
2017-Oct-15 12:33N 57°57' E 010°42'112.3
2017-Oct-15 12:30N 57°57' E 010°43'612.1
2017-Oct-15 12:00N 57°53' E 010°51'611.6
2017-Oct-15 11:28N 57°48' E 010°59'611.9
2017-Oct-15 10:59N 57°43' E 011°05'612.5
2017-Oct-15 10:30N 57°38' E 011°11'712.8
2017-Oct-15 09:59N 57°33' E 011°18'612.8
2017-Oct-15 09:30N 57°28' E 011°26'612.9
2017-Oct-15 09:00N 57°22' E 011°30'612.7
2017-Oct-15 08:30N 57°16' E 011°34'612.3
2017-Oct-15 08:00N 57°10' E 011°38'612.2
2017-Oct-15 07:30N 57°05' E 011°42'612.3
2017-Oct-15 07:00N 56°59' E 011°45'612.0
2017-Oct-15 06:30N 56°53' E 011°49'611.8
2017-Oct-15 06:00N 56°48' E 011°53'611.0
2017-Oct-15 05:30N 56°42' E 011°55'511.1
2017-Oct-15 05:00N 56°37' E 011°58'611.3
2017-Oct-15 04:28N 56°31' E 012°00'611.1
2017-Oct-15 03:59N 56°26' E 012°02'510.9
2017-Oct-15 03:30N 56°21' E 012°04'510.2
2017-Oct-15 03:00N 56°17' E 012°09'711.6
2017-Oct-15 02:22N 56°12' E 012°20'411.9
2017-Oct-15 02:00N 56°10' E 012°26'611.5
2017-Oct-15 01:30N 56°06' E 012°35'611.3
2017-Oct-15 01:00N 56°02' E 012°41'611.5
2017-Oct-15 00:30N 55°56' E 012°44'611.7
2017-Oct-15 00:00N 55°50' E 012°45'611.6
2017-Oct-14 23:30N 55°45' E 012°50'611.9
2017-Oct-14 23:00N 55°40' E 012°56'5 9.3
2017-Oct-14 22:30N 55°36' E 012°52'510.9
2017-Oct-14 22:00N 55°32' E 012°46'4 8.8
2017-Oct-14 21:30N 55°28' E 012°42'611.6
2017-Oct-14 21:00N 55°22' E 012°41'5 9.1
2017-Oct-14 20:25N 55°18' E 012°45'511.3
2017-Oct-14 20:00N 55°16' E 012°53'611.7
2017-Oct-14 19:30N 55°14' E 013°02'612.0
2017-Oct-14 19:00N 55°11' E 013°12'1812.3
2017-Oct-14 17:30N 55°04' E 013°42'611.8
2017-Oct-14 16:58N 55°02' E 013°52'1411.2
2017-Oct-14 15:41N 54°56' E 014°15'211.2
2017-Oct-14 15:30N 54°56' E 014°18'611.1
2017-Oct-14 14:57N 54°53' E 014°28'510.9
2017-Oct-14 14:30N 54°51' E 014°36'611.1
2017-Oct-14 14:00N 54°49' E 014°45'611.5
2017-Oct-14 13:30N 54°47' E 014°54'711.8
2017-Oct-14 12:56N 54°45' E 015°05'9911.1
2017-Oct-14 04:01N 54°59' E 017°56'011.7
2017-Oct-14 04:00N 54°59' E 017°56'611.1
2017-Oct-14 03:29N 55°01' E 018°06'610.9
2017-Oct-14 02:58N 55°02' E 018°16'511.0
2017-Oct-14 02:30N 55°01' E 018°24'611.2
2017-Oct-14 02:00N 55°01' E 018°34'611.2
2017-Oct-14 01:30N 54°59' E 018°43'611.5
2017-Oct-14 01:00N 54°56' E 018°52'611.4
2017-Oct-14 00:30N 54°54' E 019°01'611.4
2017-Oct-14 00:00N 54°52' E 019°10'611.3
2017-Oct-13 23:30N 54°50' E 019°19'611.3
2017-Oct-13 23:00N 54°47' E 019°28'17 0.5
2017-Oct-12 12:18N 54°38' E 019°54'3 8.5
2017-Oct-12 12:00N 54°40' E 019°50'611.1
2017-Oct-12 11:29N 54°42' E 019°41'510.9
2017-Oct-12 11:00N 54°47' E 019°38'510.5
2017-Oct-12 10:30N 54°52' E 019°37'510.6
2017-Oct-12 10:00N 54°58' E 019°37'5311.7
2017-Oct-12 05:26N 55°42' E 018°45'512.1
2017-Oct-12 04:59N 55°46' E 018°39'39 0.9
2017-Oct-10 11:09N 55°08' E 018°29'110.0
2017-Oct-10 11:00N 55°07' E 018°30'5 9.7
2017-Oct-10 10:30N 55°03' E 018°36'5 9.5
2017-Oct-10 10:00N 54°60' E 018°41'5 9.4
2017-Oct-10 09:30N 54°56' E 018°47'5 9.4
2017-Oct-10 09:00N 54°52' E 018°52'  

Dump ship's entire track history